createdAt,value
2019-03-04T00:01:25.570Z,54.60
2019-03-04T00:03:51.821Z,54.70
2019-03-04T00:06:18.088Z,54.40
2019-03-04T00:08:44.441Z,54.10
2019-03-04T00:11:10.725Z,54.60
2019-03-04T00:13:37.007Z,55.10
2019-03-04T00:16:03.611Z,54.90
2019-03-04T00:18:29.861Z,54.50
2019-03-04T00:20:56.143Z,54.00
2019-03-04T00:23:22.740Z,53.80
2019-03-04T00:25:49.112Z,53.60
2019-03-04T00:28:15.391Z,53.50
2019-03-04T00:30:41.704Z,53.10
2019-03-04T00:33:08.001Z,53.90
2019-03-04T00:35:34.233Z,53.40
2019-03-04T00:38:00.753Z,53.20
2019-03-04T00:40:27.403Z,53.30
2019-03-04T00:42:53.661Z,53.30
2019-03-04T00:45:20.034Z,53.10
2019-03-04T00:47:46.322Z,53.20
2019-03-04T00:50:16.061Z,53.40
2019-03-04T00:52:42.427Z,53.30
2019-03-04T00:55:10.171Z,53.50
2019-03-04T00:57:36.457Z,53.40
2019-03-04T01:00:19.965Z,53.30
2019-03-04T01:02:46.547Z,53.20
2019-03-04T01:05:12.935Z,53.20
2019-03-04T01:07:39.495Z,53.20
2019-03-04T01:10:12.064Z,53.10
2019-03-04T01:12:38.808Z,53.00
2019-03-04T01:15:17.326Z,53.10
2019-03-04T01:17:43.764Z,53.20
2019-03-04T01:20:13.995Z,53.10
2019-03-04T01:22:40.258Z,53.00
2019-03-04T01:25:10.834Z,53.00
2019-03-04T01:27:37.591Z,53.20
2019-03-04T01:30:09.567Z,53.10
2019-03-04T01:32:35.915Z,53.10
2019-03-04T01:35:04.007Z,53.00
2019-03-04T01:37:30.296Z,52.90
2019-03-04T01:39:56.575Z,53.00
2019-03-04T01:42:22.837Z,53.50
2019-03-04T01:44:49.253Z,53.50
2019-03-04T01:47:17.370Z,53.50
2019-03-04T01:49:43.650Z,53.50
2019-03-04T01:52:09.899Z,53.60
2019-03-04T01:54:36.183Z,54.30
2019-03-04T01:57:02.564Z,54.30
2019-03-04T01:59:28.806Z,55.00
2019-03-04T02:01:55.074Z,55.30
2019-03-04T02:04:21.444Z,55.10
2019-03-04T02:06:47.802Z,55.30
2019-03-04T02:09:14.162Z,55.60
2019-03-04T02:11:40.447Z,55.60
2019-03-04T02:14:06.835Z,55.80
2019-03-04T02:16:33.095Z,56.00
2019-03-04T02:18:59.371Z,56.90
2019-03-04T02:21:25.889Z,57.00
2019-03-04T02:23:52.506Z,57.00
2019-03-04T02:26:19.187Z,57.20
2019-03-04T02:28:45.467Z,57.00
2019-03-04T02:31:11.811Z,56.90
2019-03-04T02:33:38.074Z,57.00
2019-03-04T02:36:04.319Z,57.20
2019-03-04T02:38:30.595Z,57.20
2019-03-04T02:40:56.854Z,57.40
2019-03-04T02:43:23.108Z,57.50
2019-03-04T02:45:49.703Z,57.50
2019-03-04T02:48:15.991Z,57.70
2019-03-04T02:50:42.256Z,57.80
2019-03-04T02:53:08.794Z,57.90
2019-03-04T02:55:35.443Z,58.80
2019-03-04T02:58:02.073Z,57.70
2019-03-04T03:00:28.466Z,57.80
2019-03-04T03:02:54.750Z,57.60
2019-03-04T03:05:22.189Z,58.00
2019-03-04T03:07:48.516Z,57.90
2019-03-04T03:10:14.973Z,57.90
2019-03-04T03:12:41.460Z,58.50
2019-03-04T03:15:16.150Z,58.60
2019-03-04T03:17:42.592Z,58.60
2019-03-04T03:20:11.482Z,58.90
2019-03-04T03:22:38.019Z,58.90
2019-03-04T03:25:07.777Z,58.50
2019-03-04T03:27:34.036Z,58.70
2019-03-04T03:30:00.607Z,59.00
2019-03-04T03:32:27.197Z,58.70
2019-03-04T03:34:53.423Z,58.40
2019-03-04T03:37:19.751Z,58.40
2019-03-04T03:39:46.000Z,58.30
2019-03-04T03:42:12.276Z,58.40
2019-03-04T03:44:38.519Z,58.50
2019-03-04T03:47:04.777Z,58.20
2019-03-04T03:49:31.036Z,58.70
2019-03-04T03:51:57.275Z,59.00
2019-03-04T03:54:23.582Z,58.20
2019-03-04T03:56:49.915Z,58.50
2019-03-04T03:59:16.383Z,59.40
2019-03-04T04:01:42.651Z,59.60
2019-03-04T04:04:08.904Z,59.20
2019-03-04T04:06:35.163Z,59.00
2019-03-04T04:09:01.433Z,59.70
2019-03-04T04:11:27.731Z,60.80
2019-03-04T04:13:53.993Z,61.40
2019-03-04T04:16:20.267Z,60.20
2019-03-04T04:18:46.634Z,59.40
2019-03-04T04:21:13.022Z,59.40
2019-03-04T04:23:39.268Z,59.50
2019-03-04T04:26:07.551Z,60.20
2019-03-04T04:28:34.369Z,59.40
2019-03-04T04:31:00.623Z,59.00
2019-03-04T04:33:26.880Z,58.90
2019-03-04T04:35:53.156Z,58.30
2019-03-04T04:38:19.416Z,57.70
2019-03-04T04:40:45.675Z,58.00
2019-03-04T04:43:11.924Z,57.90
2019-03-04T04:45:38.224Z,57.80
2019-03-04T04:48:04.617Z,58.20
2019-03-04T04:50:31.755Z,58.00
2019-03-04T04:52:58.080Z,57.70
2019-03-04T04:55:24.416Z,57.40
2019-03-04T04:57:50.979Z,57.00
2019-03-04T05:00:19.226Z,56.80
2019-03-04T05:02:45.511Z,57.70
2019-03-04T05:05:12.368Z,57.10
2019-03-04T05:07:38.846Z,56.90
2019-03-04T05:10:10.424Z,57.00
2019-03-04T05:12:36.679Z,57.10
2019-03-04T05:15:07.528Z,57.50
2019-03-04T05:17:33.790Z,58.40
2019-03-04T05:20:00.099Z,58.60
2019-03-04T05:22:26.461Z,58.90
2019-03-04T05:24:52.729Z,59.40
2019-03-04T05:27:18.979Z,59.40
2019-03-04T05:29:46.062Z,58.50
2019-03-04T05:32:12.500Z,60.00
2019-03-04T05:34:38.760Z,60.20
2019-03-04T05:37:05.061Z,58.40
2019-03-04T05:39:31.376Z,58.20
2019-03-04T05:41:57.635Z,58.30
2019-03-04T05:44:23.931Z,58.30
2019-03-04T05:46:50.173Z,58.50
2019-03-04T05:49:16.527Z,59.30
2019-03-04T05:51:42.965Z,59.60
2019-03-04T05:54:09.414Z,60.50
2019-03-04T05:56:36.260Z,61.40
2019-03-04T05:59:02.617Z,61.80
2019-03-04T06:01:29.371Z,62.10
2019-03-04T06:04:02.711Z,62.50
2019-03-04T06:06:40.330Z,62.30
2019-03-04T06:09:11.004Z,62.80
2019-03-04T06:11:37.432Z,62.80
2019-03-04T06:14:06.118Z,63.40
2019-03-04T06:16:32.372Z,63.40
2019-03-04T06:18:58.626Z,63.10
2019-03-04T06:21:25.099Z,61.20
2019-03-04T06:23:51.390Z,61.10
2019-03-04T06:26:17.946Z,60.70
2019-03-04T06:28:44.297Z,59.60
2019-03-04T06:31:10.669Z,60.90
2019-03-04T06:33:36.915Z,58.50
2019-03-04T06:36:03.171Z,59.50
2019-03-04T06:38:29.464Z,59.00
2019-03-04T06:40:55.723Z,58.70
2019-03-04T06:43:22.270Z,58.10
2019-03-04T06:45:48.571Z,57.80
2019-03-04T06:48:16.753Z,58.80
2019-03-04T06:50:50.287Z,56.70
2019-03-04T06:53:43.527Z,56.40
2019-03-04T06:56:24.456Z,56.30
2019-03-04T06:59:25.243Z,56.10
2019-03-04T07:02:19.315Z,55.10
2019-03-04T07:05:12.856Z,53.20
2019-03-04T07:07:39.100Z,53.40
2019-03-04T07:10:07.479Z,53.20
2019-03-04T07:12:33.775Z,52.90
2019-03-04T07:15:00.033Z,51.90
2019-03-04T07:17:26.322Z,51.70
2019-03-04T07:20:16.078Z,51.30
2019-03-04T07:22:42.634Z,51.80
2019-03-04T07:25:09.205Z,51.40
2019-03-04T07:27:35.492Z,52.10
2019-03-04T07:30:06.338Z,51.60
2019-03-04T07:32:32.637Z,51.50
2019-03-04T07:34:58.932Z,50.30
2019-03-04T07:37:25.178Z,48.30
2019-03-04T07:39:51.457Z,47.90
2019-03-04T07:42:17.731Z,47.50
2019-03-04T07:44:44.043Z,46.20
2019-03-04T07:47:10.266Z,46.10
2019-03-04T07:49:36.605Z,45.10
2019-03-04T07:52:03.061Z,44.60
2019-03-04T07:54:29.334Z,44.10
2019-03-04T07:56:55.841Z,44.30
2019-03-04T07:59:22.211Z,44.40
2019-03-04T08:01:48.480Z,44.40
2019-03-04T08:04:14.780Z,44.10
2019-03-04T08:06:41.098Z,44.40
2019-03-04T08:09:25.113Z,43.20
2019-03-04T08:12:37.214Z,43.20
2019-03-04T08:15:07.193Z,43.70
2019-03-04T08:17:33.461Z,42.40
2019-03-04T08:19:59.744Z,42.30
2019-03-04T08:22:26.035Z,42.00
2019-03-04T08:24:52.328Z,41.20
2019-03-04T08:27:18.585Z,40.40
2019-03-04T08:29:44.999Z,41.30
2019-03-04T08:32:11.274Z,39.00
2019-03-04T08:34:37.536Z,39.30
2019-03-04T08:37:03.817Z,38.30
2019-03-04T08:39:30.145Z,38.20
2019-03-04T08:41:56.417Z,36.70
2019-03-04T08:44:22.794Z,36.40
2019-03-04T08:46:49.077Z,36.30
2019-03-04T08:49:15.425Z,35.80
2019-03-04T08:51:41.684Z,35.50
2019-03-04T08:54:07.979Z,35.40
2019-03-04T08:56:36.259Z,35.00
2019-03-04T08:59:02.737Z,35.20
2019-03-04T09:01:31.200Z,35.00
2019-03-04T09:03:57.178Z,34.80
2019-03-04T09:06:24.829Z,33.40
2019-03-04T09:08:52.987Z,30.90
2019-03-04T09:11:19.361Z,30.70
2019-03-04T09:13:45.763Z,30.30
2019-03-04T09:16:12.148Z,31.40
2019-03-04T09:18:38.614Z,29.30
2019-03-04T09:21:05.011Z,28.90
2019-03-04T09:23:31.459Z,29.00
2019-03-04T09:26:05.739Z,28.70
2019-03-04T09:28:32.024Z,27.20
2019-03-04T09:30:59.962Z,26.80
2019-03-04T09:33:26.231Z,28.30
2019-03-04T09:35:52.491Z,26.90
2019-03-04T09:38:18.750Z,26.50
2019-03-04T09:40:45.155Z,26.10
2019-03-04T09:43:11.415Z,26.70
2019-03-04T09:45:39.130Z,26.50
2019-03-04T09:48:05.958Z,26.00
2019-03-04T09:50:32.361Z,25.90
2019-03-04T09:52:58.803Z,25.90
2019-03-04T09:55:25.305Z,25.80
2019-03-04T09:57:51.588Z,26.20
2019-03-04T10:00:29.184Z,26.10
2019-03-04T10:03:23.856Z,26.20
2019-03-04T10:06:27.966Z,25.90
2019-03-04T10:09:22.965Z,26.50
2019-03-04T10:12:15.110Z,26.80
2019-03-04T10:15:11.636Z,27.20
2019-03-04T10:17:43.623Z,27.50
2019-03-04T10:21:00.110Z,27.60
2019-03-04T10:23:50.505Z,27.50
2019-03-04T10:26:48.173Z,27.30
2019-03-04T10:29:51.494Z,28.60
2019-03-04T10:32:52.603Z,28.00
2019-03-04T10:35:44.282Z,28.80
2019-03-04T10:38:25.483Z,29.40
2019-03-04T10:41:06.776Z,30.10
2019-03-04T10:44:24.702Z,31.20
2019-03-04T10:46:54.087Z,31.60
2019-03-04T10:49:25.552Z,32.40
2019-03-04T10:51:52.216Z,33.40
2019-03-04T10:54:19.557Z,34.60
2019-03-04T10:56:45.838Z,34.50
2019-03-04T10:59:12.084Z,35.30
2019-03-04T11:01:38.473Z,34.60
2019-03-04T11:04:04.834Z,35.30
2019-03-04T11:06:31.191Z,36.70
2019-03-04T11:08:57.469Z,36.90
2019-03-04T11:11:29.822Z,37.30
2019-03-04T11:13:52.063Z,38.00
2019-03-04T11:16:18.337Z,38.30
2019-03-04T11:18:44.595Z,38.80
2019-03-04T11:21:10.885Z,39.80
2019-03-04T11:23:37.359Z,39.80
2019-03-04T11:26:03.819Z,40.20
2019-03-04T11:28:30.186Z,41.30
2019-03-04T11:30:56.491Z,41.30
2019-03-04T11:33:23.002Z,42.10
2019-03-04T11:35:49.254Z,42.50
2019-03-04T11:38:38.624Z,43.30
2019-03-04T11:41:07.876Z,43.80
2019-03-04T11:43:34.547Z,44.00
2019-03-04T11:46:01.063Z,44.80
2019-03-04T11:48:27.316Z,45.20
2019-03-04T11:50:53.567Z,45.90
2019-03-04T11:53:20.098Z,46.70
2019-03-04T11:55:46.332Z,46.70
2019-03-04T11:58:12.608Z,47.00
2019-03-04T12:00:40.962Z,47.00
2019-03-04T12:03:07.353Z,48.20
2019-03-04T12:05:33.627Z,48.50
2019-03-04T12:07:59.884Z,48.70
2019-03-04T12:10:26.125Z,49.10
2019-03-04T12:12:52.550Z,49.90
2019-03-04T12:15:19.735Z,50.00
2019-03-04T12:17:47.303Z,50.40
2019-03-04T12:20:15.193Z,51.10
2019-03-04T12:22:41.540Z,51.20
2019-03-04T12:25:13.442Z,50.90
2019-03-04T12:27:40.103Z,50.20
2019-03-04T12:30:19.170Z,49.50
2019-03-04T12:32:45.517Z,48.80
2019-03-04T12:35:33.544Z,48.40
2019-03-04T12:37:59.832Z,48.60
2019-03-04T12:40:26.286Z,49.10
2019-03-04T12:42:52.668Z,48.90
2019-03-04T12:45:23.083Z,49.20
2019-03-04T12:47:49.664Z,49.70
2019-03-04T12:50:34.825Z,49.80
2019-03-04T12:53:01.331Z,50.00
2019-03-04T12:55:27.767Z,50.30
2019-03-04T12:57:54.150Z,51.10
2019-03-04T13:00:28.782Z,51.20
2019-03-04T13:02:57.781Z,51.50
2019-03-04T13:05:23.630Z,51.90
2019-03-04T13:07:50.202Z,51.70
2019-03-04T13:10:17.919Z,52.20
2019-03-04T13:12:44.882Z,52.10
2019-03-04T13:15:30.944Z,52.30
2019-03-04T13:17:57.404Z,52.50
2019-03-04T13:20:30.757Z,53.20
2019-03-04T13:22:57.139Z,54.60
2019-03-04T13:25:23.611Z,54.10
2019-03-04T13:27:50.067Z,54.50
2019-03-04T13:30:25.300Z,56.20
2019-03-04T13:32:51.761Z,56.20
2019-03-04T13:35:54.326Z,56.30
2019-03-04T13:38:20.563Z,56.30
2019-03-04T13:40:46.854Z,56.60
2019-03-04T13:43:13.158Z,56.20
2019-03-04T13:45:39.630Z,55.90
2019-03-04T13:48:06.111Z,55.90
2019-03-04T13:50:36.464Z,55.70
2019-03-04T13:53:03.781Z,56.00
2019-03-04T13:55:30.189Z,56.10
2019-03-04T13:57:56.789Z,56.30
2019-03-04T14:00:43.028Z,56.40
2019-03-04T14:03:12.691Z,55.90
2019-03-04T14:05:38.986Z,55.90
2019-03-04T14:08:05.454Z,56.00
2019-03-04T14:10:40.843Z,55.80
2019-03-04T14:13:07.388Z,55.40
2019-03-04T14:15:39.209Z,55.70
2019-03-04T14:18:05.698Z,55.90
2019-03-04T14:20:32.103Z,55.80
2019-03-04T14:22:58.495Z,55.80
2019-03-04T14:25:24.868Z,56.30
2019-03-04T14:27:51.177Z,56.50
2019-03-04T14:30:19.767Z,57.00
2019-03-04T14:32:46.527Z,57.30
2019-03-04T14:35:12.890Z,57.60
2019-03-04T14:37:39.671Z,57.80
2019-03-04T14:40:15.912Z,57.60
2019-03-04T14:42:42.292Z,58.10
2019-03-04T14:45:15.581Z,58.40
2019-03-04T14:47:42.371Z,58.70
2019-03-04T14:50:12.324Z,58.60
2019-03-04T14:52:38.769Z,58.60
2019-03-04T14:55:15.614Z,58.90
2019-03-04T14:57:42.380Z,59.00
2019-03-04T15:00:16.413Z,59.20
2019-03-04T15:02:42.850Z,59.20
2019-03-04T15:05:09.339Z,59.30
2019-03-04T15:07:35.587Z,59.60
2019-03-04T15:10:05.780Z,59.50
2019-03-04T15:12:32.040Z,59.60
2019-03-04T15:14:58.516Z,59.60
2019-03-04T15:17:27.630Z,59.60
2019-03-04T15:19:53.919Z,59.70
2019-03-04T15:22:22.710Z,59.40
2019-03-04T15:24:49.493Z,59.20
2019-03-04T15:27:16.114Z,59.30
2019-03-04T15:29:42.403Z,59.20
2019-03-04T15:32:08.846Z,59.20
2019-03-04T15:34:35.105Z,58.80
2019-03-04T15:37:02.464Z,58.80
2019-03-04T15:39:28.722Z,58.60
2019-03-04T15:41:55.135Z,58.80
2019-03-04T15:44:21.482Z,58.80
2019-03-04T15:46:47.887Z,58.70
2019-03-04T15:49:14.135Z,58.60
2019-03-04T15:51:40.603Z,59.00
2019-03-04T15:54:06.917Z,58.40
2019-03-04T15:56:35.437Z,58.20
2019-03-04T15:59:02.099Z,58.20
2019-03-04T16:01:28.454Z,58.00
2019-03-04T16:03:54.916Z,57.80
2019-03-04T16:06:21.412Z,57.30
2019-03-04T16:08:47.914Z,56.60
2019-03-04T16:11:14.802Z,56.60
2019-03-04T16:13:41.104Z,56.20
2019-03-04T16:16:07.660Z,56.40
2019-03-04T16:18:34.068Z,55.40
2019-03-04T16:21:00.826Z,54.30
2019-03-04T16:23:27.205Z,53.80
2019-03-04T16:25:53.928Z,53.50
2019-03-04T16:28:24.452Z,53.80
2019-03-04T16:30:51.192Z,53.70
2019-03-04T16:33:17.752Z,53.30
2019-03-04T16:35:44.503Z,52.10
2019-03-04T16:38:10.934Z,51.60
2019-03-04T16:40:37.340Z,51.20
2019-03-04T16:43:03.808Z,50.80
2019-03-04T16:45:30.205Z,50.40
2019-03-04T16:47:56.574Z,50.20
2019-03-04T16:50:36.448Z,54.00
2019-03-04T16:53:10.954Z,49.90
2019-03-04T16:55:37.438Z,48.20
2019-03-04T16:58:04.000Z,50.20
2019-03-04T17:00:30.401Z,50.00
2019-03-04T17:02:56.785Z,47.80
2019-03-04T17:05:23.548Z,49.10
2019-03-04T17:07:51.038Z,49.30
2019-03-04T17:10:23.527Z,48.40
2019-03-04T17:12:49.996Z,48.00
2019-03-04T17:15:21.400Z,47.90
2019-03-04T17:17:48.434Z,47.60
2019-03-04T17:20:16.700Z,47.50
2019-03-04T17:22:43.295Z,46.90
2019-03-04T17:25:16.263Z,47.10
2019-03-04T17:27:43.543Z,48.50
2019-03-04T17:30:19.132Z,47.90
2019-03-04T17:32:45.706Z,47.10
2019-03-04T17:35:17.690Z,46.30
2019-03-04T17:37:44.099Z,47.10
2019-03-04T17:40:14.362Z,46.40
2019-03-04T17:42:40.928Z,45.40
2019-03-04T17:45:11.688Z,45.50
2019-03-04T17:47:38.077Z,45.70
2019-03-04T17:50:09.657Z,45.90
2019-03-04T17:52:36.049Z,45.80
2019-03-04T17:55:06.919Z,45.80
2019-03-04T17:57:33.192Z,46.10
2019-03-04T17:59:59.739Z,45.80
2019-03-04T18:02:26.306Z,45.80
2019-03-04T18:04:52.612Z,46.00
2019-03-04T18:07:18.968Z,45.70
2019-03-04T18:09:45.378Z,45.00
2019-03-04T18:12:11.665Z,45.10
2019-03-04T18:14:37.936Z,44.20
2019-03-04T18:17:04.500Z,43.40
2019-03-04T18:19:31.328Z,43.30
2019-03-04T18:21:57.979Z,43.90
2019-03-04T18:24:26.163Z,44.10
2019-03-04T18:26:53.537Z,44.30
2019-03-04T18:29:28.575Z,44.60
2019-03-04T18:32:21.546Z,45.10
2019-03-04T18:35:30.126Z,45.80
2019-03-04T18:38:23.513Z,46.40
2019-03-04T18:41:21.823Z,47.10
2019-03-04T18:44:26.639Z,47.50
2019-03-04T18:47:26.431Z,48.10
2019-03-04T18:49:54.199Z,49.00
2019-03-04T18:52:21.762Z,49.30
2019-03-04T18:54:49.534Z,49.30
2019-03-04T18:57:27.486Z,49.80
2019-03-04T18:59:55.763Z,50.50
2019-03-04T19:02:23.598Z,50.90
2019-03-04T19:04:51.324Z,51.50
2019-03-04T19:07:19.186Z,51.70
2019-03-04T19:09:47.055Z,51.80
2019-03-04T19:12:14.935Z,52.30
2019-03-04T19:14:42.897Z,53.00
2019-03-04T19:17:11.109Z,53.70
2019-03-04T19:19:40.507Z,54.10
2019-03-04T19:22:09.104Z,55.10
2019-03-04T19:24:36.981Z,57.50
2019-03-04T19:27:05.056Z,60.80
2019-03-04T19:29:32.962Z,63.40
2019-03-04T19:32:00.982Z,65.80
2019-03-04T19:34:29.389Z,67.30
2019-03-04T19:36:57.279Z,68.90
2019-03-04T19:39:25.178Z,70.00
2019-03-04T19:41:53.170Z,71.30
2019-03-04T19:44:21.374Z,71.80
2019-03-04T19:46:49.381Z,72.90
2019-03-04T19:49:17.399Z,73.40
2019-03-04T19:51:45.646Z,74.00
2019-03-04T19:54:13.858Z,74.40
2019-03-04T19:56:41.879Z,74.30
2019-03-04T19:59:11.732Z,74.20
2019-03-04T20:01:39.651Z,74.40
2019-03-04T20:04:09.233Z,75.20
2019-03-04T20:06:37.412Z,75.60
2019-03-04T20:09:08.033Z,75.90
2019-03-04T20:11:36.062Z,76.10
2019-03-04T20:14:04.147Z,75.80
2019-03-04T20:16:32.170Z,75.90
2019-03-04T20:19:00.196Z,75.60
2019-03-04T20:21:28.548Z,75.20
2019-03-04T20:23:56.823Z,76.10
2019-03-04T20:26:25.316Z,76.00
2019-03-04T20:28:53.437Z,76.80
2019-03-04T20:31:23.283Z,77.30
2019-03-04T20:33:53.369Z,77.10
2019-03-04T20:36:21.458Z,77.20
2019-03-04T20:38:49.430Z,78.00
2019-03-04T20:41:17.618Z,78.50
2019-03-04T20:43:47.148Z,78.60
2019-03-04T20:46:15.022Z,78.20
2019-03-04T20:48:44.162Z,79.10
2019-03-04T20:51:18.415Z,79.70
2019-03-04T20:53:46.729Z,80.50
2019-03-04T20:56:14.771Z,80.80
2019-03-04T20:58:42.768Z,80.90
2019-03-04T21:01:11.379Z,81.10
2019-03-04T21:03:39.385Z,82.00
2019-03-04T21:06:07.560Z,82.40
2019-03-04T21:08:35.675Z,82.50
2019-03-04T21:11:04.359Z,82.70
2019-03-04T21:13:35.895Z,83.10
2019-03-04T21:16:02.655Z,83.90
2019-03-04T21:18:30.996Z,83.80
2019-03-04T21:20:59.205Z,83.50
2019-03-04T21:23:27.303Z,84.20
2019-03-04T21:26:03.096Z,83.70
2019-03-04T21:28:36.191Z,83.90
2019-03-04T21:31:41.387Z,84.00
2019-03-04T21:34:33.050Z,83.80
2019-03-04T21:37:21.847Z,83.30
2019-03-04T21:39:54.878Z,83.80
2019-03-04T21:42:37.611Z,83.50
2019-03-04T21:45:47.074Z,83.10
2019-03-04T21:48:20.015Z,83.30
2019-03-04T21:50:52.842Z,82.20
2019-03-04T21:53:56.546Z,81.50
2019-03-04T21:56:47.080Z,81.80
2019-03-04T21:59:13.443Z,80.70
2019-03-04T22:01:51.709Z,80.50
2019-03-04T22:04:18.537Z,79.90
2019-03-04T22:06:44.975Z,79.50
2019-03-04T22:09:11.357Z,79.30
2019-03-04T22:11:37.785Z,79.30
2019-03-04T22:14:04.430Z,79.70
2019-03-04T22:16:40.029Z,79.30
2019-03-04T22:19:07.668Z,79.90
2019-03-04T22:21:35.415Z,79.80
2019-03-04T22:24:01.753Z,80.20
2019-03-04T22:26:28.144Z,80.00
2019-03-04T22:28:54.368Z,79.20
2019-03-04T22:31:20.680Z,78.90
2019-03-04T22:33:49.195Z,78.80
2019-03-04T22:36:15.998Z,78.80
2019-03-04T22:38:42.642Z,79.10
2019-03-04T22:41:08.947Z,78.50
2019-03-04T22:43:36.923Z,78.50
2019-03-04T22:46:11.182Z,78.10
2019-03-04T22:48:37.466Z,77.60
2019-03-04T22:51:03.904Z,77.00
2019-03-04T22:53:30.299Z,76.80
2019-03-04T22:55:56.807Z,76.80
2019-03-04T22:58:28.570Z,75.80
2019-03-04T23:00:58.865Z,74.80
2019-03-04T23:03:37.575Z,74.10
2019-03-04T23:06:12.894Z,73.40
2019-03-04T23:08:39.263Z,73.50
2019-03-04T23:11:05.657Z,72.80
2019-03-04T23:13:56.076Z,72.90
2019-03-04T23:16:27.092Z,73.40
2019-03-04T23:18:53.445Z,73.40
2019-03-04T23:21:19.798Z,73.10
2019-03-04T23:23:46.174Z,72.70
2019-03-04T23:26:12.534Z,72.20
2019-03-04T23:28:38.835Z,72.60
2019-03-04T23:31:05.107Z,72.20
2019-03-04T23:33:31.367Z,72.50
2019-03-04T23:35:57.611Z,71.60
2019-03-04T23:38:23.972Z,71.40
2019-03-04T23:40:50.688Z,70.90
2019-03-04T23:43:16.966Z,70.50
2019-03-04T23:45:43.405Z,70.20
2019-03-04T23:48:09.656Z,70.40
2019-03-04T23:50:35.924Z,70.80
2019-03-04T23:53:02.297Z,71.00
2019-03-04T23:55:28.534Z,70.90
2019-03-04T23:57:54.845Z,70.60
